createdAt,value
2023-12-01T00:00:47.667Z,47.40
2023-12-01T00:03:15.270Z,50.90
2023-12-01T00:05:42.830Z,78.40
2023-12-01T00:08:10.389Z,54.80
2023-12-01T00:10:38.044Z,52.20
2023-12-01T00:13:05.618Z,58.80
2023-12-01T00:15:33.202Z,50.10
2023-12-01T00:18:00.867Z,49.10
2023-12-01T00:20:28.624Z,67.70
2023-12-01T00:22:56.250Z,83.30
2023-12-01T00:25:23.810Z,59.10
2023-12-01T00:27:51.518Z,59.70
2023-12-01T00:30:19.234Z,53.20
2023-12-01T00:32:46.834Z,53.50
2023-12-01T00:35:14.965Z,51.20
2023-12-01T00:37:42.622Z,45.40
2023-12-01T00:40:10.214Z,52.50
2023-12-01T00:42:37.988Z,45.80
2023-12-01T00:45:05.649Z,95.80
2023-12-01T00:47:33.314Z,78.80
2023-12-01T00:50:01.166Z,66.10
2023-12-01T00:52:28.802Z,70.40
2023-12-01T00:54:56.167Z,217.90
2023-12-01T00:57:24.126Z,79.20
2023-12-01T00:59:51.700Z,67.60
2023-12-01T01:02:19.345Z,50.50
2023-12-01T01:04:47.070Z,41.00
2023-12-01T01:07:14.769Z,41.10
2023-12-01T01:09:42.445Z,62.00
2023-12-01T01:12:09.982Z,56.70
2023-12-01T01:14:37.659Z,56.10
2023-12-01T01:17:05.257Z,42.00
2023-12-01T01:19:32.968Z,45.80
2023-12-01T01:22:00.831Z,54.40
2023-12-01T01:24:28.395Z,65.40
2023-12-01T01:26:55.961Z,88.70
2023-12-01T01:29:23.611Z,63.20
2023-12-01T01:31:51.289Z,59.40
2023-12-01T01:34:21.276Z,51.00
2023-12-01T01:36:51.157Z,52.70
2023-12-01T01:39:18.928Z,41.20
2023-12-01T01:41:46.525Z,38.50
2023-12-01T01:44:14.501Z,39.60
2023-12-01T01:46:42.152Z,58.30
2023-12-01T01:49:09.841Z,61.90
2023-12-01T01:51:37.519Z,50.80
2023-12-01T01:54:05.144Z,60.00
2023-12-01T01:56:32.834Z,61.10
2023-12-01T01:59:00.464Z,55.60
2023-12-01T02:01:28.253Z,38.50
2023-12-01T02:03:56.425Z,45.10
2023-12-01T02:06:24.059Z,53.20
2023-12-01T02:08:51.615Z,61.20
2023-12-01T02:11:19.283Z,65.20
2023-12-01T02:13:46.845Z,42.50
2023-12-01T02:16:14.462Z,55.10
2023-12-01T02:18:42.278Z,56.80
2023-12-01T02:21:09.946Z,54.90
2023-12-01T02:23:37.505Z,48.00
2023-12-01T02:26:05.150Z,62.00
2023-12-01T02:28:32.712Z,58.90
2023-12-01T02:31:00.434Z,53.50
2023-12-01T02:33:28.233Z,55.70
2023-12-01T02:35:55.807Z,48.30
2023-12-01T02:38:23.480Z,48.70
2023-12-01T02:40:51.966Z,39.10
2023-12-01T02:43:20.093Z,48.40
2023-12-01T02:45:48.402Z,62.40
2023-12-01T02:48:16.151Z,49.70
2023-12-01T02:50:43.817Z,54.80
2023-12-01T02:53:11.473Z,52.00
2023-12-01T02:55:39.158Z,54.30
2023-12-01T02:58:06.755Z,60.50
2023-12-01T03:00:34.527Z,63.80
2023-12-01T03:03:02.113Z,53.30
2023-12-01T03:05:29.992Z,51.50
2023-12-01T03:07:57.640Z,47.40
2023-12-01T03:10:25.249Z,49.40
2023-12-01T03:12:52.818Z,35.90
2023-12-01T03:15:20.564Z,38.60
2023-12-01T03:17:48.332Z,35.10
2023-12-01T03:20:16.005Z,77.90
2023-12-01T03:22:43.717Z,64.70
2023-12-01T03:25:11.746Z,49.90
2023-12-01T03:27:39.407Z,55.30
2023-12-01T03:30:07.121Z,49.00
2023-12-01T03:32:34.884Z,50.40
2023-12-01T03:35:02.433Z,39.00
2023-12-01T03:37:30.036Z,43.10
2023-12-01T03:39:57.689Z,50.10
2023-12-01T03:42:25.327Z,37.40
2023-12-01T03:44:52.872Z,94.00
2023-12-01T03:47:20.339Z,86.90
2023-12-01T03:49:48.210Z,55.40
2023-12-01T03:52:15.863Z,64.00
2023-12-01T03:54:43.462Z,323.30
2023-12-01T03:57:11.085Z,71.30
2023-12-01T03:59:38.738Z,85.30
2023-12-01T04:02:06.457Z,175.70
2023-12-01T04:04:34.285Z,232.80
2023-12-01T04:07:02.086Z,315.90
2023-12-01T04:09:30.095Z,250.10
2023-12-01T04:11:57.731Z,184.30
2023-12-01T04:14:25.415Z,155.60
2023-12-01T04:16:53.014Z,80.40
2023-12-01T04:19:20.642Z,87.90
2023-12-01T04:21:48.240Z,95.90
2023-12-01T04:24:15.858Z,98.20
2023-12-01T04:26:43.424Z,62.50
2023-12-01T04:29:10.991Z,85.20
2023-12-01T04:31:38.924Z,77.30
2023-12-01T04:34:06.636Z,56.20
2023-12-01T04:36:34.284Z,41.80
2023-12-01T04:39:01.944Z,48.40
2023-12-01T04:41:29.492Z,51.10
2023-12-01T04:43:57.152Z,44.40
2023-12-01T04:46:24.929Z,41.50
2023-12-01T04:48:52.714Z,79.10
2023-12-01T04:51:20.455Z,72.70
2023-12-01T04:53:48.414Z,50.70
2023-12-01T04:56:16.001Z,92.50
2023-12-01T04:58:43.530Z,94.90
2023-12-01T05:01:11.238Z,98.40
2023-12-01T05:03:38.951Z,66.60
2023-12-01T05:06:06.624Z,66.20
2023-12-01T05:08:34.275Z,50.60
2023-12-01T05:11:02.246Z,94.60
2023-12-01T05:13:29.910Z,87.70
2023-12-01T05:15:57.530Z,61.70
2023-12-01T05:18:25.380Z,65.10
2023-12-01T05:20:53.203Z,55.50
2023-12-01T05:23:20.985Z,64.40
2023-12-01T05:25:48.727Z,58.30
2023-12-01T05:28:16.348Z,78.20
2023-12-01T05:30:44.181Z,93.40
2023-12-01T05:33:12.280Z,80.80
2023-12-01T05:35:39.986Z,75.00
2023-12-01T05:38:07.642Z,80.30
2023-12-01T05:40:35.340Z,73.80
2023-12-01T05:43:02.994Z,70.70
2023-12-01T05:45:30.632Z,70.20
2023-12-01T05:47:58.531Z,69.00
2023-12-01T05:50:26.290Z,54.30
2023-12-01T05:52:54.225Z,92.30
2023-12-01T05:55:23.849Z,103.50
2023-12-01T05:57:51.864Z,74.10
2023-12-01T06:00:19.592Z,72.40
2023-12-01T06:02:47.373Z,63.50
2023-12-01T06:05:15.206Z,56.10
2023-12-01T06:07:42.780Z,46.40
2023-12-01T06:10:10.678Z,56.90
2023-12-01T06:12:38.695Z,58.80
2023-12-01T06:15:06.463Z,69.90
2023-12-01T06:17:34.044Z,77.90
2023-12-01T06:20:01.688Z,84.90
2023-12-01T06:22:29.262Z,115.50
2023-12-01T06:24:56.929Z,90.30
2023-12-01T06:27:24.559Z,85.90
2023-12-01T06:29:52.239Z,84.90
2023-12-01T06:32:19.880Z,104.10
2023-12-01T06:34:47.542Z,74.00
2023-12-01T06:37:15.555Z,112.00
2023-12-01T06:39:43.220Z,99.00
2023-12-01T06:42:10.940Z,126.00
2023-12-01T06:44:38.494Z,107.10
2023-12-01T06:47:06.250Z,88.90
2023-12-01T06:49:33.981Z,98.60
2023-12-01T06:52:01.588Z,76.80
2023-12-01T06:54:29.403Z,79.90
2023-12-01T06:56:57.416Z,110.10
2023-12-01T06:59:24.978Z,99.20
2023-12-01T07:01:52.724Z,99.10
2023-12-01T07:04:20.469Z,84.80
2023-12-01T07:06:48.187Z,86.10
2023-12-01T07:09:15.929Z,97.70
2023-12-01T07:11:43.496Z,94.40
2023-12-01T07:14:11.254Z,94.40
2023-12-01T07:16:39.316Z,89.50
2023-12-01T07:19:07.040Z,82.60
2023-12-01T07:21:34.648Z,82.20
2023-12-01T07:24:02.617Z,86.30
2023-12-01T07:26:30.279Z,89.70
2023-12-01T07:28:57.838Z,92.00
2023-12-01T07:31:25.501Z,77.60
2023-12-01T07:33:53.278Z,88.30
2023-12-01T07:36:25.878Z,75.30
2023-12-01T07:39:00.665Z,71.80
2023-12-01T07:41:28.325Z,77.10
2023-12-01T07:43:55.884Z,84.10
2023-12-01T07:46:23.623Z,90.40
2023-12-01T07:48:51.495Z,90.90
2023-12-01T07:51:19.072Z,85.60
2023-12-01T07:53:46.742Z,85.00
2023-12-01T07:56:14.602Z,82.10
2023-12-01T07:58:42.255Z,78.10
2023-12-01T08:01:09.857Z,81.30
2023-12-01T08:03:37.647Z,77.90
2023-12-01T08:06:05.464Z,82.70
2023-12-01T08:08:33.119Z,78.80
2023-12-01T08:11:07.842Z,81.50
2023-12-01T08:13:35.537Z,101.50
2023-12-01T08:16:03.657Z,107.20
2023-12-01T08:18:31.541Z,84.10
2023-12-01T08:20:59.337Z,89.70
2023-12-01T08:23:27.324Z,82.90
2023-12-01T08:25:55.042Z,98.60
2023-12-01T08:28:22.689Z,77.60
2023-12-01T08:30:51.144Z,89.50
2023-12-01T08:33:18.868Z,84.30
2023-12-01T08:35:46.553Z,86.90
2023-12-01T08:38:14.467Z,89.00
2023-12-01T08:40:43.658Z,73.50
2023-12-01T08:43:12.051Z,71.70
2023-12-01T08:45:39.730Z,63.50
2023-12-01T08:48:07.498Z,74.40
2023-12-01T08:50:35.161Z,66.90
2023-12-01T08:53:02.892Z,72.30
2023-12-01T08:55:30.594Z,84.80
2023-12-01T08:57:58.516Z,73.50
2023-12-01T09:00:28.125Z,86.00
2023-12-01T09:02:55.929Z,80.00
2023-12-01T09:05:23.577Z,75.60
2023-12-01T09:07:51.317Z,69.30
2023-12-01T09:10:18.978Z,78.30
2023-12-01T09:12:46.636Z,75.60
2023-12-01T09:15:14.314Z,72.60
2023-12-01T09:17:42.359Z,80.60
2023-12-01T09:20:10.138Z,82.70
2023-12-01T09:22:37.802Z,77.20
2023-12-01T09:25:07.829Z,81.60
2023-12-01T09:27:37.187Z,78.90
2023-12-01T09:30:06.334Z,73.60
2023-12-01T09:32:34.194Z,76.80
2023-12-01T09:35:01.635Z,65.90
2023-12-01T09:37:29.217Z,76.60
2023-12-01T09:39:57.786Z,65.70
2023-12-01T09:42:25.864Z,64.60
2023-12-01T09:44:53.642Z,71.20
2023-12-01T09:47:21.390Z,72.30
2023-12-01T09:49:49.176Z,74.30
2023-12-01T09:52:16.906Z,73.80
2023-12-01T09:55:06.642Z,67.00
2023-12-01T09:57:32.381Z,73.00
2023-12-01T10:00:00.184Z,66.40
2023-12-01T10:02:29.613Z,70.20
2023-12-01T10:04:58.089Z,62.40
2023-12-01T10:07:26.113Z,69.30
2023-12-01T10:09:53.780Z,60.50
2023-12-01T10:12:21.331Z,64.90
2023-12-01T10:14:48.978Z,60.70
2023-12-01T10:17:16.753Z,74.00
2023-12-01T10:19:44.341Z,69.40
2023-12-01T10:22:11.881Z,68.80
2023-12-01T10:24:39.538Z,68.40
2023-12-01T10:27:07.139Z,60.60
2023-12-01T10:29:34.858Z,68.40
2023-12-01T10:32:03.002Z,64.30
2023-12-01T10:34:30.714Z,72.10
2023-12-01T10:36:58.658Z,69.70
2023-12-01T10:39:26.364Z,60.50
2023-12-01T10:41:55.153Z,71.90
2023-12-01T10:44:23.998Z,54.50
2023-12-01T10:46:51.575Z,61.80
2023-12-01T10:49:19.542Z,67.00
2023-12-01T10:51:47.094Z,70.30
2023-12-01T10:54:14.578Z,64.20
2023-12-01T10:56:42.230Z,69.70
2023-12-01T10:59:09.974Z,68.00
2023-12-01T11:01:37.710Z,63.50
2023-12-01T11:04:05.457Z,67.70
2023-12-01T11:06:33.193Z,64.60
2023-12-01T11:09:01.094Z,68.00
2023-12-01T11:11:28.916Z,60.40
2023-12-01T11:13:56.807Z,61.40
2023-12-01T11:16:24.421Z,61.70
2023-12-01T11:18:52.159Z,56.90
2023-12-01T11:21:20.097Z,59.50
2023-12-01T11:23:47.835Z,69.60
2023-12-01T11:26:15.482Z,72.40
2023-12-01T11:28:43.281Z,68.20
2023-12-01T11:31:10.899Z,66.40
2023-12-01T11:33:38.567Z,67.80
2023-12-01T11:36:06.377Z,61.40
2023-12-01T11:38:33.994Z,63.80
2023-12-01T11:41:01.853Z,64.60
2023-12-01T11:43:37.765Z,59.40
2023-12-01T11:46:06.208Z,62.40
2023-12-01T11:48:34.044Z,61.30
2023-12-01T11:51:01.823Z,60.90
2023-12-01T11:53:29.402Z,71.40
2023-12-01T11:55:57.057Z,64.70
2023-12-01T11:58:24.702Z,65.60
2023-12-01T12:00:52.512Z,66.50
2023-12-01T12:03:20.438Z,60.60
2023-12-01T12:05:48.368Z,61.10
2023-12-01T12:08:16.167Z,65.60
2023-12-01T12:10:43.752Z,59.20
2023-12-01T12:13:11.305Z,62.80
2023-12-01T12:15:39.081Z,55.70
2023-12-01T12:18:07.210Z,66.30
2023-12-01T12:20:35.141Z,67.20
2023-12-01T12:23:02.862Z,65.20
2023-12-01T12:25:30.650Z,63.30
2023-12-01T12:27:58.377Z,63.60
2023-12-01T12:30:26.364Z,67.10
2023-12-01T12:32:54.144Z,54.10
2023-12-01T12:35:22.317Z,56.20
2023-12-01T12:37:49.941Z,58.00
2023-12-01T12:40:17.505Z,72.70
2023-12-01T12:42:45.165Z,71.20
2023-12-01T12:45:12.768Z,62.80
2023-12-01T12:47:40.440Z,55.00
2023-12-01T12:50:08.052Z,66.90
2023-12-01T12:52:35.807Z,62.90
2023-12-01T12:55:03.162Z,62.60
2023-12-01T12:57:31.168Z,55.00
2023-12-01T12:59:58.954Z,61.40
2023-12-01T13:02:26.675Z,59.90
2023-12-01T13:04:54.222Z,53.60
2023-12-01T13:07:21.875Z,69.90
2023-12-01T13:09:49.544Z,73.30
2023-12-01T13:12:17.260Z,61.50
2023-12-01T13:14:45.013Z,66.50
2023-12-01T13:17:12.624Z,65.90
2023-12-01T13:19:40.419Z,57.50
2023-12-01T13:22:08.353Z,59.90
2023-12-01T13:24:36.107Z,63.50
2023-12-01T13:27:03.812Z,56.20
2023-12-01T13:29:31.653Z,69.30
2023-12-01T13:31:59.447Z,69.40
2023-12-01T13:34:27.181Z,74.50
2023-12-01T13:36:54.835Z,81.80
2023-12-01T13:39:22.591Z,72.30
2023-12-01T13:41:50.698Z,71.10
2023-12-01T13:44:18.739Z,61.30
2023-12-01T13:46:46.534Z,64.50
2023-12-01T13:49:14.374Z,61.00
2023-12-01T13:51:42.067Z,63.50
2023-12-01T13:54:09.728Z,52.50
2023-12-01T13:56:37.350Z,59.90
2023-12-01T13:59:04.915Z,73.60
2023-12-01T14:01:32.629Z,70.10
2023-12-01T14:04:00.813Z,64.50
2023-12-01T14:06:28.636Z,73.70
2023-12-01T14:08:56.284Z,66.80
2023-12-01T14:11:23.838Z,73.00
2023-12-01T14:13:51.509Z,84.60
2023-12-01T14:16:19.172Z,69.60
2023-12-01T14:18:46.801Z,70.30
2023-12-01T14:21:14.784Z,76.00
2023-12-01T14:23:42.496Z,85.90
2023-12-01T14:26:10.321Z,79.60
2023-12-01T14:28:37.882Z,75.70
2023-12-01T14:31:05.541Z,74.90
2023-12-01T14:33:33.303Z,70.60
2023-12-01T14:36:01.146Z,76.30
2023-12-01T14:38:28.950Z,75.10
2023-12-01T14:40:56.588Z,60.70
2023-12-01T14:43:24.219Z,60.60
2023-12-01T14:45:52.351Z,88.50
2023-12-01T14:48:20.334Z,79.10
2023-12-01T14:50:48.176Z,65.80
2023-12-01T14:53:15.826Z,60.90
2023-12-01T14:55:43.487Z,60.00
2023-12-01T14:58:11.250Z,58.30
2023-12-01T15:00:38.917Z,56.70
2023-12-01T15:03:06.686Z,50.50
2023-12-01T15:05:34.457Z,50.00
2023-12-01T15:08:02.022Z,57.40
2023-12-01T15:10:29.655Z,72.50
2023-12-01T15:12:57.232Z,64.60
2023-12-01T15:15:24.954Z,67.30
2023-12-01T15:17:52.616Z,62.70
2023-12-01T15:20:20.419Z,66.00
2023-12-01T15:22:47.991Z,62.40
2023-12-01T15:25:15.938Z,60.90
2023-12-01T15:27:43.696Z,67.90
2023-12-01T15:30:11.397Z,72.00
2023-12-01T15:32:39.036Z,84.50
2023-12-01T15:35:06.472Z,77.70
2023-12-01T15:37:34.035Z,72.10
2023-12-01T15:40:01.658Z,75.50
2023-12-01T15:42:29.598Z,74.00
2023-12-01T15:44:57.387Z,74.80
2023-12-01T15:47:24.984Z,73.10
2023-12-01T15:49:52.645Z,68.40
2023-12-01T15:52:20.517Z,72.80
2023-12-01T15:54:48.176Z,70.60
2023-12-01T15:57:15.770Z,69.10
2023-12-01T15:59:43.548Z,67.00
2023-12-01T16:02:11.398Z,66.90
2023-12-01T16:04:39.022Z,70.10
2023-12-01T16:07:06.586Z,72.10
2023-12-01T16:09:34.244Z,74.70
2023-12-01T16:12:02.149Z,93.20
2023-12-01T16:14:29.876Z,83.60
2023-12-01T16:16:57.558Z,72.60
2023-12-01T16:19:25.282Z,75.70
2023-12-01T16:21:53.033Z,76.10
2023-12-01T16:24:25.329Z,69.90
2023-12-01T16:26:56.079Z,67.90
2023-12-01T16:29:23.716Z,62.40
2023-12-01T16:31:51.286Z,65.30
2023-12-01T16:34:19.163Z,65.70
2023-12-01T16:36:53.475Z,82.50
2023-12-01T16:39:22.245Z,74.40
2023-12-01T16:41:50.040Z,61.70
2023-12-01T16:44:17.710Z,64.80
2023-12-01T16:46:45.337Z,62.40
2023-12-01T16:49:13.108Z,66.40
2023-12-01T16:51:40.862Z,52.00
2023-12-01T16:54:08.469Z,64.90
2023-12-01T16:56:36.208Z,81.10
2023-12-01T16:59:03.876Z,79.10
2023-12-01T17:01:31.636Z,67.30
2023-12-01T17:03:59.306Z,64.40
2023-12-01T17:06:27.193Z,64.30
2023-12-01T17:08:54.816Z,66.00
2023-12-01T17:11:22.474Z,57.70
2023-12-01T17:13:50.242Z,55.10
2023-12-01T17:16:17.994Z,55.30
2023-12-01T17:18:45.716Z,91.10
2023-12-01T17:21:13.477Z,76.00
2023-12-01T17:23:41.185Z,66.10
2023-12-01T17:26:08.741Z,67.40
2023-12-01T17:28:36.298Z,71.20
2023-12-01T17:31:03.899Z,70.90
2023-12-01T17:33:31.681Z,67.40
2023-12-01T17:35:59.824Z,57.10
2023-12-01T17:38:27.562Z,50.60
2023-12-01T17:40:55.221Z,83.40
2023-12-01T17:43:22.887Z,67.50
2023-12-01T17:45:50.742Z,57.60
2023-12-01T17:48:18.569Z,59.10
2023-12-01T17:50:46.402Z,56.20
2023-12-01T17:53:14.147Z,52.40
2023-12-01T17:55:42.119Z,58.40
2023-12-01T17:58:09.771Z,55.40
2023-12-01T18:00:37.561Z,51.00
2023-12-01T18:03:05.338Z,54.50
2023-12-01T18:05:33.069Z,88.40
2023-12-01T18:08:00.839Z,71.80
2023-12-01T18:10:28.383Z,58.30
2023-12-01T18:12:56.042Z,58.80
2023-12-01T18:15:24.082Z,56.30
2023-12-01T18:17:51.919Z,59.00
2023-12-01T18:20:19.650Z,56.80
2023-12-01T18:22:47.629Z,57.30
2023-12-01T18:25:15.275Z,55.30
2023-12-01T18:27:43.873Z,48.90
2023-12-01T18:30:11.550Z,76.40
2023-12-01T18:32:42.339Z,68.10
2023-12-01T18:35:09.943Z,56.50
2023-12-01T18:37:37.471Z,53.80
2023-12-01T18:40:05.452Z,56.10
2023-12-01T18:42:33.203Z,52.60
2023-12-01T18:45:01.082Z,52.30
2023-12-01T18:47:28.735Z,49.10
2023-12-01T18:49:56.439Z,41.90
2023-12-01T18:52:23.957Z,69.00
2023-12-01T18:54:51.617Z,57.70
2023-12-01T18:57:19.300Z,52.00
2023-12-01T18:59:46.956Z,49.10
2023-12-01T19:02:14.797Z,47.80
2023-12-01T19:04:42.596Z,44.10
2023-12-01T19:07:10.256Z,43.70
2023-12-01T19:09:37.808Z,39.70
2023-12-01T19:12:05.503Z,39.10
2023-12-01T19:14:33.213Z,66.60
2023-12-01T19:17:00.879Z,50.90
2023-12-01T19:19:28.633Z,44.20
2023-12-01T19:21:56.425Z,41.70
2023-12-01T19:24:24.419Z,40.50
2023-12-01T19:26:52.158Z,41.20
2023-12-01T19:29:19.803Z,38.40
2023-12-01T19:31:47.449Z,32.80
2023-12-01T19:34:15.176Z,36.50
2023-12-01T19:36:42.887Z,51.60
2023-12-01T19:39:16.736Z,43.50
2023-12-01T19:41:44.446Z,37.20
2023-12-01T19:44:12.005Z,36.40
2023-12-01T19:46:39.678Z,36.80
2023-12-01T19:49:07.265Z,34.90
2023-12-01T19:51:34.995Z,29.40
2023-12-01T19:54:02.581Z,30.00
2023-12-01T19:56:30.219Z,51.30
2023-12-01T19:58:57.883Z,38.80
2023-12-01T20:01:25.552Z,33.40
2023-12-01T20:03:53.192Z,33.90
2023-12-01T20:06:21.039Z,31.00
2023-12-01T20:08:48.755Z,30.70
2023-12-01T20:11:16.501Z,33.80
2023-12-01T20:13:44.056Z,35.10
2023-12-01T20:16:11.804Z,34.50
2023-12-01T20:18:39.525Z,43.00
2023-12-01T20:21:07.368Z,41.30
2023-12-01T20:23:35.115Z,35.50
2023-12-01T20:26:03.068Z,35.30
2023-12-01T20:28:30.624Z,34.60
2023-12-01T20:30:58.387Z,34.80
2023-12-01T20:33:26.126Z,35.90
2023-12-01T20:35:53.932Z,39.10
2023-12-01T20:38:21.469Z,33.50
2023-12-01T20:40:49.150Z,49.10
2023-12-01T20:43:16.707Z,42.10
2023-12-01T20:45:44.363Z,38.10
2023-12-01T20:48:12.317Z,39.00
2023-12-01T20:50:40.084Z,43.30
2023-12-01T20:53:07.712Z,38.60
2023-12-01T20:55:35.512Z,42.90
2023-12-01T20:58:03.175Z,39.80
2023-12-01T21:00:30.757Z,47.70
2023-12-01T21:02:58.529Z,43.60
2023-12-01T21:05:26.533Z,41.00
2023-12-01T21:07:54.234Z,47.40
2023-12-01T21:10:21.805Z,45.80
2023-12-01T21:12:49.352Z,47.50
2023-12-01T21:15:17.051Z,47.60
2023-12-01T21:17:44.749Z,46.30
2023-12-01T21:20:12.530Z,57.00
2023-12-01T21:22:40.208Z,49.50
2023-12-01T21:25:07.780Z,46.20
2023-12-01T21:27:35.453Z,46.00
2023-12-01T21:30:03.537Z,48.30
2023-12-01T21:32:31.282Z,49.50
2023-12-01T21:34:58.811Z,47.40
2023-12-01T21:37:26.485Z,48.30
2023-12-01T21:39:54.138Z,55.70
2023-12-01T21:42:21.989Z,54.60
2023-12-01T21:44:49.793Z,42.50
2023-12-01T21:47:17.527Z,45.40
2023-12-01T21:49:45.241Z,43.90
2023-12-01T21:52:12.851Z,45.20
2023-12-01T21:54:40.572Z,47.60
2023-12-01T21:57:08.329Z,46.00
2023-12-01T21:59:36.041Z,50.50
2023-12-01T22:02:03.618Z,44.50
2023-12-01T22:04:31.272Z,41.50
2023-12-01T22:06:58.816Z,44.60
2023-12-01T22:09:26.413Z,41.10
2023-12-01T22:11:54.453Z,43.60
2023-12-01T22:14:22.108Z,41.90
2023-12-01T22:16:49.885Z,43.80
2023-12-01T22:19:17.848Z,47.10
2023-12-01T22:21:45.715Z,44.90
2023-12-01T22:24:13.275Z,44.70
2023-12-01T22:26:40.930Z,43.40
2023-12-01T22:29:08.595Z,41.40
2023-12-01T22:31:36.261Z,41.80
2023-12-01T22:34:04.138Z,41.30
2023-12-01T22:36:31.791Z,40.40
2023-12-01T22:38:59.602Z,49.70
2023-12-01T22:41:27.316Z,42.90
2023-12-01T22:43:56.180Z,39.40
2023-12-01T22:46:24.882Z,39.00
2023-12-01T22:48:52.578Z,40.60
2023-12-01T22:51:20.321Z,39.90
2023-12-01T22:53:47.888Z,40.80
2023-12-01T22:56:15.633Z,44.80
2023-12-01T22:58:43.207Z,41.50
2023-12-01T23:01:10.857Z,37.70
2023-12-01T23:03:38.537Z,37.10
2023-12-01T23:06:06.444Z,36.90
2023-12-01T23:08:34.267Z,36.10
2023-12-01T23:11:01.988Z,35.40
2023-12-01T23:13:30.091Z,39.90
2023-12-01T23:15:57.808Z,38.00
2023-12-01T23:18:25.690Z,38.60
2023-12-01T23:20:53.682Z,36.20
2023-12-01T23:23:21.490Z,37.50
2023-12-01T23:25:49.097Z,37.20
2023-12-01T23:28:16.937Z,36.60
2023-12-01T23:30:44.741Z,40.10
2023-12-01T23:33:12.706Z,37.00
2023-12-01T23:35:44.928Z,35.60
2023-12-01T23:38:13.397Z,36.30
2023-12-01T23:40:41.021Z,35.00
2023-12-01T23:43:08.663Z,36.60
2023-12-01T23:45:36.292Z,34.10
2023-12-01T23:48:04.238Z,36.20
2023-12-01T23:50:31.961Z,36.70
2023-12-01T23:52:59.628Z,33.60
2023-12-01T23:55:27.205Z,34.20
2023-12-01T23:57:57.736Z,32.40
